sensor_id;sensor_type;location;lat;lon;timestamp;temperature;humidity
262;DHT22;114;48.260;10.988;2023-11-21T00:00:49;7.20;1.00
262;DHT22;114;48.260;10.988;2023-11-21T00:03:14;7.10;1.00
262;DHT22;114;48.260;10.988;2023-11-21T00:05:41;7.10;1.00
262;DHT22;114;48.260;10.988;2023-11-21T00:08:08;7.10;1.00
262;DHT22;114;48.260;10.988;2023-11-21T00:10:34;7.10;1.00
262;DHT22;114;48.260;10.988;2023-11-21T00:13:00;7.20;1.00
262;DHT22;114;48.260;10.988;2023-11-21T00:15:27;7.10;1.00
262;DHT22;114;48.260;10.988;2023-11-21T00:17:53;7.10;1.00
262;DHT22;114;48.260;10.988;2023-11-21T00:20:18;7.10;1.00
262;DHT22;114;48.260;10.988;2023-11-21T00:22:44;7.10;1.00
262;DHT22;114;48.260;10.988;2023-11-21T00:25:10;7.10;1.00
262;DHT22;114;48.260;10.988;2023-11-21T00:27:36;7.10;1.00
262;DHT22;114;48.260;10.988;2023-11-21T00:30:02;7.10;1.00
262;DHT22;114;48.260;10.988;2023-11-21T00:32:30;7.20;1.00
262;DHT22;114;48.260;10.988;2023-11-21T00:34:55;7.20;1.00
262;DHT22;114;48.260;10.988;2023-11-21T00:37:21;7.20;1.00
262;DHT22;114;48.260;10.988;2023-11-21T00:39:47;7.20;1.00
262;DHT22;114;48.260;10.988;2023-11-21T00:42:12;7.20;1.00
262;DHT22;114;48.260;10.988;2023-11-21T00:44:38;7.20;1.00
262;DHT22;114;48.260;10.988;2023-11-21T00:47:04;7.20;1.00
262;DHT22;114;48.260;10.988;2023-11-21T00:49:30;7.20;1.00
262;DHT22;114;48.260;10.988;2023-11-21T00:51:56;7.20;1.00
262;DHT22;114;48.260;10.988;2023-11-21T00:54:23;7.20;1.00
262;DHT22;114;48.260;10.988;2023-11-21T00:56:49;7.20;1.00
262;DHT22;114;48.260;10.988;2023-11-21T00:59:14;7.20;1.00
262;DHT22;114;48.260;10.988;2023-11-21T01:01:40;7.20;1.00
262;DHT22;114;48.260;10.988;2023-11-21T01:04:06;7.20;1.00
262;DHT22;114;48.260;10.988;2023-11-21T01:06:34;7.10;1.00
262;DHT22;114;48.260;10.988;2023-11-21T01:09:00;7.20;1.00
262;DHT22;114;48.260;10.988;2023-11-21T01:11:25;7.10;1.00
262;DHT22;114;48.260;10.988;2023-11-21T01:13:51;7.10;1.00
262;DHT22;114;48.260;10.988;2023-11-21T01:16:18;7.10;1.00
262;DHT22;114;48.260;10.988;2023-11-21T01:18:44;7.10;1.00
262;DHT22;114;48.260;10.988;2023-11-21T01:21:09;7.10;1.00
262;DHT22;114;48.260;10.988;2023-11-21T01:23:35;7.00;1.00
262;DHT22;114;48.260;10.988;2023-11-21T01:26:01;7.10;1.00
262;DHT22;114;48.260;10.988;2023-11-21T01:28:26;7.00;1.00
262;DHT22;114;48.260;10.988;2023-11-21T01:30:53;7.00;1.00
262;DHT22;114;48.260;10.988;2023-11-21T01:33:22;7.00;1.00
262;DHT22;114;48.260;10.988;2023-11-21T01:35:47;7.00;1.00
262;DHT22;114;48.260;10.988;2023-11-21T01:38:13;6.90;1.00
262;DHT22;114;48.260;10.988;2023-11-21T01:40:40;6.90;1.00
262;DHT22;114;48.260;10.988;2023-11-21T01:43:06;6.80;1.00
262;DHT22;114;48.260;10.988;2023-11-21T01:45:31;6.80;1.00
262;DHT22;114;48.260;10.988;2023-11-21T01:48:00;6.80;1.00
262;DHT22;114;48.260;10.988;2023-11-21T01:50:26;6.90;1.00
262;DHT22;114;48.260;10.988;2023-11-21T01:52:52;6.80;1.00
262;DHT22;114;48.260;10.988;2023-11-21T01:55:18;6.80;1.00
262;DHT22;114;48.260;10.988;2023-11-21T01:57:45;6.80;1.00
262;DHT22;114;48.260;10.988;2023-11-21T02:00:11;6.80;1.00
262;DHT22;114;48.260;10.988;2023-11-21T02:02:48;6.80;1.00
262;DHT22;114;48.260;10.988;2023-11-21T02:05:15;6.80;1.00
262;DHT22;114;48.260;10.988;2023-11-21T02:07:43;6.80;1.00
262;DHT22;114;48.260;10.988;2023-11-21T02:10:10;6.80;1.00
262;DHT22;114;48.260;10.988;2023-11-21T02:12:40;6.80;1.00
262;DHT22;114;48.260;10.988;2023-11-21T02:15:06;6.80;1.00
262;DHT22;114;48.260;10.988;2023-11-21T02:17:41;6.80;1.00
262;DHT22;114;48.260;10.988;2023-11-21T02:20:07;6.80;1.00
262;DHT22;114;48.260;10.988;2023-11-21T02:22:35;6.80;1.00
262;DHT22;114;48.260;10.988;2023-11-21T02:25:03;6.80;1.00
262;DHT22;114;48.260;10.988;2023-11-21T02:27:29;6.90;1.00
262;DHT22;114;48.260;10.988;2023-11-21T02:29:56;6.90;1.00
262;DHT22;114;48.260;10.988;2023-11-21T02:32:22;6.90;1.00
262;DHT22;114;48.260;10.988;2023-11-21T02:34:48;6.90;1.00
262;DHT22;114;48.260;10.988;2023-11-21T02:37:15;6.90;1.00
262;DHT22;114;48.260;10.988;2023-11-21T02:39:41;6.80;1.00
262;DHT22;114;48.260;10.988;2023-11-21T02:42:06;6.80;1.00
262;DHT22;114;48.260;10.988;2023-11-21T02:44:32;6.80;1.00
262;DHT22;114;48.260;10.988;2023-11-21T02:46:58;6.70;1.00
262;DHT22;114;48.260;10.988;2023-11-21T02:49:23;6.70;1.00
262;DHT22;114;48.260;10.988;2023-11-21T02:51:49;6.80;1.00
262;DHT22;114;48.260;10.988;2023-11-21T02:54:15;6.80;1.00
262;DHT22;114;48.260;10.988;2023-11-21T02:56:42;6.70;1.00
262;DHT22;114;48.260;10.988;2023-11-21T02:59:07;6.70;1.00
262;DHT22;114;48.260;10.988;2023-11-21T03:01:33;6.80;1.00
262;DHT22;114;48.260;10.988;2023-11-21T03:03:59;6.80;1.00
262;DHT22;114;48.260;10.988;2023-11-21T03:06:25;6.70;1.00
262;DHT22;114;48.260;10.988;2023-11-21T03:08:50;6.80;1.00
262;DHT22;114;48.260;10.988;2023-11-21T03:11:16;6.80;1.00
262;DHT22;114;48.260;10.988;2023-11-21T03:13:41;6.80;1.00
262;DHT22;114;48.260;10.988;2023-11-21T03:16:11;6.70;1.00
262;DHT22;114;48.260;10.988;2023-11-21T03:18:38;6.70;1.00
262;DHT22;114;48.260;10.988;2023-11-21T03:21:04;6.70;1.00
262;DHT22;114;48.260;10.988;2023-11-21T03:23:31;6.60;1.00
262;DHT22;114;48.260;10.988;2023-11-21T03:25:57;6.70;1.00
262;DHT22;114;48.260;10.988;2023-11-21T03:28:23;6.70;1.00
262;DHT22;114;48.260;10.988;2023-11-21T03:30:49;6.70;1.00
262;DHT22;114;48.260;10.988;2023-11-21T03:33:14;6.80;1.00
262;DHT22;114;48.260;10.988;2023-11-21T03:35:40;6.70;1.00
262;DHT22;114;48.260;10.988;2023-11-21T03:38:07;6.80;1.00
262;DHT22;114;48.260;10.988;2023-11-21T03:40:33;6.80;1.00
262;DHT22;114;48.260;10.988;2023-11-21T03:42:58;6.70;1.00
262;DHT22;114;48.260;10.988;2023-11-21T03:45:24;6.70;1.00
262;DHT22;114;48.260;10.988;2023-11-21T03:47:50;6.70;1.00
262;DHT22;114;48.260;10.988;2023-11-21T03:50:15;6.70;1.00
262;DHT22;114;48.260;10.988;2023-11-21T03:52:41;6.70;1.00
262;DHT22;114;48.260;10.988;2023-11-21T03:55:08;6.70;1.00
262;DHT22;114;48.260;10.988;2023-11-21T03:57:35;6.70;1.00
262;DHT22;114;48.260;10.988;2023-11-21T04:00:01;6.70;1.00
262;DHT22;114;48.260;10.988;2023-11-21T04:02:29;6.70;1.00
262;DHT22;114;48.260;10.988;2023-11-21T04:04:57;6.70;1.00
262;DHT22;114;48.260;10.988;2023-11-21T04:07:22;6.70;1.00
262;DHT22;114;48.260;10.988;2023-11-21T04:09:48;6.70;1.00
262;DHT22;114;48.260;10.988;2023-11-21T04:12:14;6.70;1.00
262;DHT22;114;48.260;10.988;2023-11-21T04:14:39;6.70;1.00
262;DHT22;114;48.260;10.988;2023-11-21T04:17:05;6.60;1.00
262;DHT22;114;48.260;10.988;2023-11-21T04:19:30;6.60;1.00
262;DHT22;114;48.260;10.988;2023-11-21T04:21:56;6.60;1.00
262;DHT22;114;48.260;10.988;2023-11-21T04:24:22;6.50;1.00
262;DHT22;114;48.260;10.988;2023-11-21T04:26:47;6.50;1.00
262;DHT22;114;48.260;10.988;2023-11-21T04:29:13;6.50;1.00
262;DHT22;114;48.260;10.988;2023-11-21T04:31:39;6.50;1.00
262;DHT22;114;48.260;10.988;2023-11-21T04:34:04;6.40;1.00
262;DHT22;114;48.260;10.988;2023-11-21T04:36:30;6.40;1.00
262;DHT22;114;48.260;10.988;2023-11-21T04:38:56;6.30;1.00
262;DHT22;114;48.260;10.988;2023-11-21T04:41:22;6.30;1.00
262;DHT22;114;48.260;10.988;2023-11-21T04:43:48;6.30;1.00
262;DHT22;114;48.260;10.988;2023-11-21T04:46:14;6.40;1.00
262;DHT22;114;48.260;10.988;2023-11-21T04:48:40;6.30;1.00
262;DHT22;114;48.260;10.988;2023-11-21T04:51:06;6.30;1.00
262;DHT22;114;48.260;10.988;2023-11-21T04:53:32;6.30;1.00
262;DHT22;114;48.260;10.988;2023-11-21T04:55:57;6.30;1.00
262;DHT22;114;48.260;10.988;2023-11-21T04:58:24;6.20;1.00
262;DHT22;114;48.260;10.988;2023-11-21T05:00:49;6.20;1.00
262;DHT22;114;48.260;10.988;2023-11-21T05:03:15;6.20;1.00
262;DHT22;114;48.260;10.988;2023-11-21T05:05:41;6.20;1.00
262;DHT22;114;48.260;10.988;2023-11-21T05:08:06;6.20;1.00
262;DHT22;114;48.260;10.988;2023-11-21T05:10:32;6.20;1.00
262;DHT22;114;48.260;10.988;2023-11-21T05:12:58;6.20;1.00
262;DHT22;114;48.260;10.988;2023-11-21T05:15:23;6.20;1.00
262;DHT22;114;48.260;10.988;2023-11-21T05:17:50;6.10;1.00
262;DHT22;114;48.260;10.988;2023-11-21T05:20:17;6.10;1.00
262;DHT22;114;48.260;10.988;2023-11-21T05:22:49;6.00;1.00
262;DHT22;114;48.260;10.988;2023-11-21T05:25:15;6.00;1.00
262;DHT22;114;48.260;10.988;2023-11-21T05:27:46;6.00;1.00
262;DHT22;114;48.260;10.988;2023-11-21T05:30:13;5.90;1.00
262;DHT22;114;48.260;10.988;2023-11-21T05:32:40;5.90;1.00
262;DHT22;114;48.260;10.988;2023-11-21T05:35:07;5.90;1.00
262;DHT22;114;48.260;10.988;2023-11-21T05:37:40;5.90;1.00
262;DHT22;114;48.260;10.988;2023-11-21T05:40:06;5.90;1.00
262;DHT22;114;48.260;10.988;2023-11-21T05:42:33;5.80;1.00
262;DHT22;114;48.260;10.988;2023-11-21T05:44:59;5.80;1.00
262;DHT22;114;48.260;10.988;2023-11-21T05:47:33;5.80;1.00
262;DHT22;114;48.260;10.988;2023-11-21T05:49:59;5.90;1.00
262;DHT22;114;48.260;10.988;2023-11-21T05:52:25;5.90;1.00
262;DHT22;114;48.260;10.988;2023-11-21T05:54:50;5.80;1.00
262;DHT22;114;48.260;10.988;2023-11-21T05:57:16;5.90;1.00
262;DHT22;114;48.260;10.988;2023-11-21T05:59:42;5.90;1.00
262;DHT22;114;48.260;10.988;2023-11-21T06:02:07;5.80;1.00
262;DHT22;114;48.260;10.988;2023-11-21T06:04:33;5.70;1.00
262;DHT22;114;48.260;10.988;2023-11-21T06:06:58;5.70;1.00
262;DHT22;114;48.260;10.988;2023-11-21T06:09:24;5.70;1.00
262;DHT22;114;48.260;10.988;2023-11-21T06:11:50;5.70;1.00
262;DHT22;114;48.260;10.988;2023-11-21T06:14:16;5.60;1.00
262;DHT22;114;48.260;10.988;2023-11-21T06:16:45;5.70;1.00
262;DHT22;114;48.260;10.988;2023-11-21T06:19:11;5.70;1.00
262;DHT22;114;48.260;10.988;2023-11-21T06:21:37;5.60;1.00
262;DHT22;114;48.260;10.988;2023-11-21T06:24:02;5.60;1.00
262;DHT22;114;48.260;10.988;2023-11-21T06:26:28;5.60;1.00
262;DHT22;114;48.260;10.988;2023-11-21T06:28:54;5.70;1.00
262;DHT22;114;48.260;10.988;2023-11-21T06:31:19;5.70;1.00
262;DHT22;114;48.260;10.988;2023-11-21T06:33:47;5.70;1.00
262;DHT22;114;48.260;10.988;2023-11-21T06:36:12;5.80;1.00
262;DHT22;114;48.260;10.988;2023-11-21T06:38:38;5.80;1.00
262;DHT22;114;48.260;10.988;2023-11-21T06:41:04;5.80;1.00
262;DHT22;114;48.260;10.988;2023-11-21T06:43:30;5.80;1.00
262;DHT22;114;48.260;10.988;2023-11-21T06:45:57;5.80;1.00
262;DHT22;114;48.260;10.988;2023-11-21T06:48:22;5.80;1.00
262;DHT22;114;48.260;10.988;2023-11-21T06:50:48;5.80;1.00
262;DHT22;114;48.260;10.988;2023-11-21T06:53:14;5.90;1.00
262;DHT22;114;48.260;10.988;2023-11-21T06:55:39;5.90;1.00
262;DHT22;114;48.260;10.988;2023-11-21T06:58:05;5.90;1.00
262;DHT22;114;48.260;10.988;2023-11-21T07:00:31;5.90;1.00
262;DHT22;114;48.260;10.988;2023-11-21T07:02:56;5.90;1.00
262;DHT22;114;48.260;10.988;2023-11-21T07:05:22;5.80;1.00
262;DHT22;114;48.260;10.988;2023-11-21T07:07:48;5.80;1.00
262;DHT22;114;48.260;10.988;2023-11-21T07:10:14;5.80;1.00
262;DHT22;114;48.260;10.988;2023-11-21T07:12:40;5.70;1.00
262;DHT22;114;48.260;10.988;2023-11-21T07:15:07;5.80;1.00
262;DHT22;114;48.260;10.988;2023-11-21T07:17:35;5.80;1.00
262;DHT22;114;48.260;10.988;2023-11-21T07:20:01;5.80;1.00
262;DHT22;114;48.260;10.988;2023-11-21T07:22:27;5.80;1.00
262;DHT22;114;48.260;10.988;2023-11-21T07:24:53;5.90;1.00
262;DHT22;114;48.260;10.988;2023-11-21T07:27:18;5.90;1.00
262;DHT22;114;48.260;10.988;2023-11-21T07:29:44;6.00;1.00
262;DHT22;114;48.260;10.988;2023-11-21T07:32:10;6.10;1.00
262;DHT22;114;48.260;10.988;2023-11-21T07:34:36;6.20;1.00
262;DHT22;114;48.260;10.988;2023-11-21T07:37:02;6.20;1.00
262;DHT22;114;48.260;10.988;2023-11-21T07:39:28;6.20;1.00
262;DHT22;114;48.260;10.988;2023-11-21T07:41:54;6.30;1.00
262;DHT22;114;48.260;10.988;2023-11-21T07:44:20;6.30;1.00
262;DHT22;114;48.260;10.988;2023-11-21T07:46:46;6.40;1.00
262;DHT22;114;48.260;10.988;2023-11-21T07:49:12;6.40;1.00
262;DHT22;114;48.260;10.988;2023-11-21T07:51:41;6.40;1.00
262;DHT22;114;48.260;10.988;2023-11-21T07:54:07;6.40;1.00
262;DHT22;114;48.260;10.988;2023-11-21T07:56:33;6.60;1.00
262;DHT22;114;48.260;10.988;2023-11-21T07:58:58;6.50;1.00
262;DHT22;114;48.260;10.988;2023-11-21T08:01:24;6.60;1.00
262;DHT22;114;48.260;10.988;2023-11-21T08:03:50;6.70;1.00
262;DHT22;114;48.260;10.988;2023-11-21T08:06:17;6.70;1.00
262;DHT22;114;48.260;10.988;2023-11-21T08:08:43;6.80;1.00
262;DHT22;114;48.260;10.988;2023-11-21T08:11:08;6.80;1.00
262;DHT22;114;48.260;10.988;2023-11-21T08:13:35;6.90;1.00
262;DHT22;114;48.260;10.988;2023-11-21T08:16:01;6.90;1.00
262;DHT22;114;48.260;10.988;2023-11-21T08:18:29;7.00;1.00
262;DHT22;114;48.260;10.988;2023-11-21T08:20:55;7.10;1.00
262;DHT22;114;48.260;10.988;2023-11-21T08:23:21;7.20;1.00
262;DHT22;114;48.260;10.988;2023-11-21T08:25:50;7.20;1.00
262;DHT22;114;48.260;10.988;2023-11-21T08:28:16;7.30;1.00
262;DHT22;114;48.260;10.988;2023-11-21T08:30:42;7.40;1.00
262;DHT22;114;48.260;10.988;2023-11-21T08:33:08;7.60;1.00
262;DHT22;114;48.260;10.988;2023-11-21T08:35:37;7.60;1.00
262;DHT22;114;48.260;10.988;2023-11-21T08:38:03;7.60;1.00
262;DHT22;114;48.260;10.988;2023-11-21T08:40:29;7.60;1.00
262;DHT22;114;48.260;10.988;2023-11-21T08:42:55;7.70;1.00
262;DHT22;114;48.260;10.988;2023-11-21T08:45:21;7.80;1.00
262;DHT22;114;48.260;10.988;2023-11-21T08:47:48;7.90;1.00
262;DHT22;114;48.260;10.988;2023-11-21T08:50:13;7.80;1.00
262;DHT22;114;48.260;10.988;2023-11-21T08:52:40;7.80;1.00
262;DHT22;114;48.260;10.988;2023-11-21T08:55:08;7.90;1.00
262;DHT22;114;48.260;10.988;2023-11-21T08:57:37;7.90;1.00
262;DHT22;114;48.260;10.988;2023-11-21T09:00:04;7.90;1.00
262;DHT22;114;48.260;10.988;2023-11-21T09:02:33;8.00;1.00
262;DHT22;114;48.260;10.988;2023-11-21T09:05:00;8.10;1.00
262;DHT22;114;48.260;10.988;2023-11-21T09:07:28;8.20;1.00
262;DHT22;114;48.260;10.988;2023-11-21T09:09:54;8.30;1.00
262;DHT22;114;48.260;10.988;2023-11-21T09:12:20;8.40;1.00
262;DHT22;114;48.260;10.988;2023-11-21T09:14:46;8.50;1.00
262;DHT22;114;48.260;10.988;2023-11-21T09:17:12;8.50;1.00
262;DHT22;114;48.260;10.988;2023-11-21T09:19:38;8.40;1.00
262;DHT22;114;48.260;10.988;2023-11-21T09:22:04;8.40;1.00
262;DHT22;114;48.260;10.988;2023-11-21T09:24:31;8.40;1.00
262;DHT22;114;48.260;10.988;2023-11-21T09:26:56;8.40;1.00
262;DHT22;114;48.260;10.988;2023-11-21T09:29:22;8.60;1.00
262;DHT22;114;48.260;10.988;2023-11-21T09:31:48;8.70;1.00
262;DHT22;114;48.260;10.988;2023-11-21T09:34:15;8.90;1.00
262;DHT22;114;48.260;10.988;2023-11-21T09:36:40;8.80;1.00
262;DHT22;114;48.260;10.988;2023-11-21T09:39:06;8.80;1.00
262;DHT22;114;48.260;10.988;2023-11-21T09:41:43;8.80;1.00
262;DHT22;114;48.260;10.988;2023-11-21T09:44:13;8.80;1.00
262;DHT22;114;48.260;10.988;2023-11-21T09:46:42;8.70;1.00
262;DHT22;114;48.260;10.988;2023-11-21T09:49:09;8.60;1.00
262;DHT22;114;48.260;10.988;2023-11-21T09:51:44;8.70;1.00
262;DHT22;114;48.260;10.988;2023-11-21T09:54:10;8.80;1.00
262;DHT22;114;48.260;10.988;2023-11-21T09:56:39;8.80;1.00
262;DHT22;114;48.260;10.988;2023-11-21T09:59:06;8.70;1.00
262;DHT22;114;48.260;10.988;2023-11-21T10:01:36;8.80;1.00
262;DHT22;114;48.260;10.988;2023-11-21T10:04:03;8.90;1.00
262;DHT22;114;48.260;10.988;2023-11-21T10:06:30;8.80;1.00
262;DHT22;114;48.260;10.988;2023-11-21T10:08:56;8.90;1.00
262;DHT22;114;48.260;10.988;2023-11-21T10:11:25;9.00;1.00
262;DHT22;114;48.260;10.988;2023-11-21T10:13:55;9.00;1.00
262;DHT22;114;48.260;10.988;2023-11-21T10:16:26;9.20;1.00
262;DHT22;114;48.260;10.988;2023-11-21T10:18:53;9.50;1.00
262;DHT22;114;48.260;10.988;2023-11-21T10:21:21;9.80;1.00
262;DHT22;114;48.260;10.988;2023-11-21T10:23:47;10.00;1.00
262;DHT22;114;48.260;10.988;2023-11-21T10:26:13;10.30;1.00
262;DHT22;114;48.260;10.988;2023-11-21T10:29:02;10.60;1.00
262;DHT22;114;48.260;10.988;2023-11-21T10:31:31;10.90;1.00
262;DHT22;114;48.260;10.988;2023-11-21T10:34:15;11.50;1.00
262;DHT22;114;48.260;10.988;2023-11-21T10:36:41;12.80;1.00
262;DHT22;114;48.260;10.988;2023-11-21T10:39:07;13.10;1.00
262;DHT22;114;48.260;10.988;2023-11-21T10:41:33;13.20;1.00
262;DHT22;114;48.260;10.988;2023-11-21T10:43:59;12.90;1.00
262;DHT22;114;48.260;10.988;2023-11-21T10:46:25;12.50;1.00
262;DHT22;114;48.260;10.988;2023-11-21T10:48:54;12.10;1.00
262;DHT22;114;48.260;10.988;2023-11-21T10:51:21;11.60;1.00
262;DHT22;114;48.260;10.988;2023-11-21T10:53:47;11.20;1.00
262;DHT22;114;48.260;10.988;2023-11-21T10:56:14;11.00;1.00
262;DHT22;114;48.260;10.988;2023-11-21T10:58:45;10.90;1.00
262;DHT22;114;48.260;10.988;2023-11-21T11:01:11;10.70;1.00
262;DHT22;114;48.260;10.988;2023-11-21T11:03:39;10.50;1.00
262;DHT22;114;48.260;10.988;2023-11-21T11:06:07;10.40;1.00
262;DHT22;114;48.260;10.988;2023-11-21T11:08:37;10.50;1.00
262;DHT22;114;48.260;10.988;2023-11-21T11:11:04;10.80;1.00
262;DHT22;114;48.260;10.988;2023-11-21T11:13:30;11.00;1.00
262;DHT22;114;48.260;10.988;2023-11-21T11:15:59;11.00;1.00
262;DHT22;114;48.260;10.988;2023-11-21T11:18:25;10.90;1.00
262;DHT22;114;48.260;10.988;2023-11-21T11:20:51;10.90;1.00
262;DHT22;114;48.260;10.988;2023-11-21T11:29:10;10.60;1.00
262;DHT22;114;48.260;10.988;2023-11-21T11:34:29;10.50;1.00
262;DHT22;114;48.260;10.988;2023-11-21T11:37:05;10.40;1.00
262;DHT22;114;48.260;10.988;2023-11-21T11:39:41;10.70;1.00
262;DHT22;114;48.260;10.988;2023-11-21T11:42:11;10.90;1.00
262;DHT22;114;48.260;10.988;2023-11-21T11:47:28;11.10;1.00
262;DHT22;114;48.260;10.988;2023-11-21T11:50:11;11.10;1.00
262;DHT22;114;48.260;10.988;2023-11-21T11:52:49;11.30;1.00
262;DHT22;114;48.260;10.988;2023-11-21T11:55:18;11.40;1.00
262;DHT22;114;48.260;10.988;2023-11-21T11:57:45;11.40;1.00
262;DHT22;114;48.260;10.988;2023-11-21T12:00:19;11.30;1.00
262;DHT22;114;48.260;10.988;2023-11-21T12:02:51;11.10;1.00
262;DHT22;114;48.260;10.988;2023-11-21T12:05:19;10.90;1.00
262;DHT22;114;48.260;10.988;2023-11-21T12:07:46;10.80;1.00
262;DHT22;114;48.260;10.988;2023-11-21T12:10:16;10.70;1.00
262;DHT22;114;48.260;10.988;2023-11-21T12:12:55;10.60;1.00
262;DHT22;114;48.260;10.988;2023-11-21T12:15:21;10.30;1.00
262;DHT22;114;48.260;10.988;2023-11-21T12:17:48;10.20;1.00
262;DHT22;114;48.260;10.988;2023-11-21T12:20:15;10.20;1.00
262;DHT22;114;48.260;10.988;2023-11-21T12:22:44;10.40;1.00
262;DHT22;114;48.260;10.988;2023-11-21T12:25:13;10.20;1.00
262;DHT22;114;48.260;10.988;2023-11-21T12:27:42;10.20;1.00
262;DHT22;114;48.260;10.988;2023-11-21T12:30:08;10.20;1.00
262;DHT22;114;48.260;10.988;2023-11-21T12:32:41;10.20;1.00
262;DHT22;114;48.260;10.988;2023-11-21T12:35:11;10.20;1.00
262;DHT22;114;48.260;10.988;2023-11-21T12:37:41;10.10;1.00
262;DHT22;114;48.260;10.988;2023-11-21T12:40:10;10.10;1.00
262;DHT22;114;48.260;10.988;2023-11-21T12:42:42;10.20;1.00
262;DHT22;114;48.260;10.988;2023-11-21T12:47:49;10.30;1.00
262;DHT22;114;48.260;10.988;2023-11-21T12:50:23;10.40;1.00
262;DHT22;114;48.260;10.988;2023-11-21T12:52:51;10.70;1.00
262;DHT22;114;48.260;10.988;2023-11-21T12:55:20;11.00;1.00
262;DHT22;114;48.260;10.988;2023-11-21T12:57:53;11.30;1.00
262;DHT22;114;48.260;10.988;2023-11-21T13:00:34;11.50;1.00
262;DHT22;114;48.260;10.988;2023-11-21T13:03:03;11.70;1.00
262;DHT22;114;48.260;10.988;2023-11-21T13:05:36;11.60;1.00
262;DHT22;114;48.260;10.988;2023-11-21T13:08:08;11.40;1.00
262;DHT22;114;48.260;10.988;2023-11-21T13:10:35;11.50;1.00
262;DHT22;114;48.260;10.988;2023-11-21T13:13:06;11.60;1.00
262;DHT22;114;48.260;10.988;2023-11-21T13:15:34;11.40;1.00
262;DHT22;114;48.260;10.988;2023-11-21T13:18:02;11.40;1.00
262;DHT22;114;48.260;10.988;2023-11-21T13:20:28;11.00;1.00
262;DHT22;114;48.260;10.988;2023-11-21T13:22:56;10.90;1.00
262;DHT22;114;48.260;10.988;2023-11-21T13:25:28;10.80;1.00
262;DHT22;114;48.260;10.988;2023-11-21T13:30:20;10.50;1.00
262;DHT22;114;48.260;10.988;2023-11-21T13:32:56;10.30;1.00
262;DHT22;114;48.260;10.988;2023-11-21T13:35:24;10.00;1.00
262;DHT22;114;48.260;10.988;2023-11-21T13:38:05;9.80;1.00
262;DHT22;114;48.260;10.988;2023-11-21T13:40:32;9.40;1.00
262;DHT22;114;48.260;10.988;2023-11-21T13:43:00;9.20;1.00
262;DHT22;114;48.260;10.988;2023-11-21T13:45:29;9.10;1.00
262;DHT22;114;48.260;10.988;2023-11-21T13:47:55;9.20;1.00
262;DHT22;114;48.260;10.988;2023-11-21T13:50:27;9.10;1.00
262;DHT22;114;48.260;10.988;2023-11-21T13:53:03;8.90;1.00
262;DHT22;114;48.260;10.988;2023-11-21T13:55:36;8.80;1.00
262;DHT22;114;48.260;10.988;2023-11-21T13:58:02;8.80;1.00
262;DHT22;114;48.260;10.988;2023-11-21T14:00:29;8.80;1.00
262;DHT22;114;48.260;10.988;2023-11-21T14:03:12;8.80;1.00
262;DHT22;114;48.260;10.988;2023-11-21T14:05:48;8.80;1.00
262;DHT22;114;48.260;10.988;2023-11-21T14:08:20;8.80;1.00
262;DHT22;114;48.260;10.988;2023-11-21T14:10:47;8.80;1.00
262;DHT22;114;48.260;10.988;2023-11-21T14:13:19;8.90;1.00
262;DHT22;114;48.260;10.988;2023-11-21T14:15:48;8.90;1.00
262;DHT22;114;48.260;10.988;2023-11-21T14:18:16;9.00;1.00
262;DHT22;114;48.260;10.988;2023-11-21T14:20:43;9.20;1.00
262;DHT22;114;48.260;10.988;2023-11-21T14:23:10;9.20;1.00
262;DHT22;114;48.260;10.988;2023-11-21T14:25:37;9.10;1.00
262;DHT22;114;48.260;10.988;2023-11-21T14:28:04;9.20;1.00
262;DHT22;114;48.260;10.988;2023-11-21T14:30:32;9.40;1.00
262;DHT22;114;48.260;10.988;2023-11-21T14:32:58;9.50;1.00
262;DHT22;114;48.260;10.988;2023-11-21T14:35:24;9.40;1.00
262;DHT22;114;48.260;10.988;2023-11-21T14:37:50;9.40;1.00
262;DHT22;114;48.260;10.988;2023-11-21T14:40:16;9.10;1.00
262;DHT22;114;48.260;10.988;2023-11-21T14:42:42;8.80;1.00
262;DHT22;114;48.260;10.988;2023-11-21T14:45:12;8.60;1.00
262;DHT22;114;48.260;10.988;2023-11-21T14:47:38;8.40;1.00
262;DHT22;114;48.260;10.988;2023-11-21T14:50:09;8.20;1.00
262;DHT22;114;48.260;10.988;2023-11-21T14:52:53;8.10;1.00
262;DHT22;114;48.260;10.988;2023-11-21T14:55:25;8.00;1.00
262;DHT22;114;48.260;10.988;2023-11-21T14:58:09;8.00;1.00
262;DHT22;114;48.260;10.988;2023-11-21T15:00:38;8.00;1.00
262;DHT22;114;48.260;10.988;2023-11-21T15:03:11;8.00;1.00
262;DHT22;114;48.260;10.988;2023-11-21T15:06:04;8.10;1.00
262;DHT22;114;48.260;10.988;2023-11-21T15:08:53;8.10;1.00
262;DHT22;114;48.260;10.988;2023-11-21T15:11:45;8.00;1.00
262;DHT22;114;48.260;10.988;2023-11-21T15:14:12;8.00;1.00
262;DHT22;114;48.260;10.988;2023-11-21T15:16:41;8.00;1.00
262;DHT22;114;48.260;10.988;2023-11-21T15:19:12;7.90;1.00
262;DHT22;114;48.260;10.988;2023-11-21T15:21:44;7.90;1.00
262;DHT22;114;48.260;10.988;2023-11-21T15:24:11;7.80;1.00
262;DHT22;114;48.260;10.988;2023-11-21T15:26:37;7.70;1.00
262;DHT22;114;48.260;10.988;2023-11-21T15:29:02;7.60;1.00
262;DHT22;114;48.260;10.988;2023-11-21T15:31:28;7.60;1.00
262;DHT22;114;48.260;10.988;2023-11-21T15:33:53;7.60;1.00
262;DHT22;114;48.260;10.988;2023-11-21T15:36:20;7.50;1.00
262;DHT22;114;48.260;10.988;2023-11-21T15:38:46;7.40;1.00
262;DHT22;114;48.260;10.988;2023-11-21T15:41:11;7.40;1.00
262;DHT22;114;48.260;10.988;2023-11-21T15:43:37;7.30;1.00
262;DHT22;114;48.260;10.988;2023-11-21T15:46:03;7.30;1.00
262;DHT22;114;48.260;10.988;2023-11-21T15:48:36;7.30;1.00
262;DHT22;114;48.260;10.988;2023-11-21T15:51:06;7.30;1.00
262;DHT22;114;48.260;10.988;2023-11-21T15:53:35;7.40;1.00
262;DHT22;114;48.260;10.988;2023-11-21T15:56:03;7.40;1.00
262;DHT22;114;48.260;10.988;2023-11-21T15:58:29;7.40;1.00
262;DHT22;114;48.260;10.988;2023-11-21T16:00:55;7.30;1.00
262;DHT22;114;48.260;10.988;2023-11-21T16:03:21;7.40;1.00
262;DHT22;114;48.260;10.988;2023-11-21T16:05:47;7.40;1.00
262;DHT22;114;48.260;10.988;2023-11-21T16:08:13;8.30;1.00
262;DHT22;114;48.260;10.988;2023-11-21T16:10:39;8.90;1.00
262;DHT22;114;48.260;10.988;2023-11-21T16:13:05;8.30;1.00
262;DHT22;114;48.260;10.988;2023-11-21T16:15:31;8.00;1.00
262;DHT22;114;48.260;10.988;2023-11-21T16:17:56;7.70;1.00
262;DHT22;114;48.260;10.988;2023-11-21T16:20:23;7.60;1.00
262;DHT22;114;48.260;10.988;2023-11-21T16:22:48;7.40;1.00
262;DHT22;114;48.260;10.988;2023-11-21T16:25:14;7.40;1.00
262;DHT22;114;48.260;10.988;2023-11-21T16:27:40;7.30;1.00
262;DHT22;114;48.260;10.988;2023-11-21T16:30:07;7.30;1.00
262;DHT22;114;48.260;10.988;2023-11-21T16:32:37;7.30;1.00
262;DHT22;114;48.260;10.988;2023-11-21T16:35:03;7.30;1.00
262;DHT22;114;48.260;10.988;2023-11-21T16:37:29;7.20;1.00
262;DHT22;114;48.260;10.988;2023-11-21T16:39:55;7.10;1.00
262;DHT22;114;48.260;10.988;2023-11-21T16:42:20;7.20;1.00
262;DHT22;114;48.260;10.988;2023-11-21T16:44:48;6.90;1.00
262;DHT22;114;48.260;10.988;2023-11-21T16:47:14;7.00;1.00
262;DHT22;114;48.260;10.988;2023-11-21T16:49:40;7.00;1.00
262;DHT22;114;48.260;10.988;2023-11-21T16:52:08;6.90;1.00
262;DHT22;114;48.260;10.988;2023-11-21T16:54:33;6.90;1.00
262;DHT22;114;48.260;10.988;2023-11-21T16:56:59;6.90;1.00
262;DHT22;114;48.260;10.988;2023-11-21T16:59:25;6.90;1.00
262;DHT22;114;48.260;10.988;2023-11-21T17:01:50;6.90;1.00
262;DHT22;114;48.260;10.988;2023-11-21T17:04:16;6.90;1.00
262;DHT22;114;48.260;10.988;2023-11-21T17:06:44;6.80;1.00